Time;durP1;ratioP1;P1;durP2;ratioP2;P2;SDS_P1;SDS_P2;PMS_P1;PMS_P2;Temp;Humidity;BMP_temperature;BMP_pressure;BME280_temperature;BME280_humidity;BME280_pressure;Samples;Min_cycle;Max_cycle;Signal;HPM_P1;HPM_P2
2022/06/05 00:01:29;;;;;;;3.30;3.10;;;;;;;20.03;60.79;97206.59;10141440;29;20473;-83
2022/06/05 00:07:07;;;;;;;3.60;3.30;;;;;;;20.03;60.76;97212.00;10151812;29;20494;-83
2022/06/05 00:12:56;;;;;;;3.90;3.60;;;;;;;20.04;60.79;97212.78;10170268;29;20044;-83
2022/06/05 00:18:15;;;;;;;3.83;3.45;;;;;;;20.03;60.86;97211.19;10169876;29;20052;-83
2022/06/05 00:23:36;;;;;;;4.15;3.75;;;;;;;20.03;60.74;97220.09;10179634;29;20048;-83
2022/06/05 00:29:01;;;;;;;4.05;3.60;;;;;;;20.03;60.76;97222.81;10170709;29;20406;-82
2022/06/05 00:34:21;;;;;;;3.58;3.28;;;;;;;20.04;60.68;97229.00;10175385;29;20048;-82
2022/06/05 00:39:59;;;;;;;3.45;3.13;;;;;;;20.03;60.69;97235.50;10159169;29;20049;-83
2022/06/05 00:45:19;;;;;;;3.80;3.50;;;;;;;20.03;60.76;97230.94;10164255;29;20056;-83
2022/06/05 00:50:41;;;;;;;3.47;3.17;;;;;;;20.03;60.71;97232.81;10166866;29;20060;-81
2022/06/05 00:56:01;;;;;;;3.40;3.20;;;;;;;20.02;60.67;97231.22;10171012;29;20690;-82
2022/06/05 01:01:21;;;;;;;3.75;3.40;;;;;;;20.02;60.77;97242.84;10174541;29;20048;-82
2022/06/05 01:06:40;;;;;;;6.80;3.38;;;;;;;20.01;60.75;97233.13;10185243;29;20067;-82
2022/06/05 01:12:15;;;;;;;3.45;3.15;;;;;;;20.01;60.71;97225.00;10175146;29;20060;-82
2022/06/05 01:17:50;;;;;;;4.43;3.47;;;;;;;20.01;60.60;97225.00;10170173;29;20464;-82
2022/06/05 01:23:21;;;;;;;3.33;3.03;;;;;;;20.00;60.66;97219.94;10187260;29;20423;-82
2022/06/05 01:28:48;;;;;;;3.22;3.00;;;;;;;20.01;60.64;97218.81;10173455;29;20048;-82
2022/06/05 01:34:20;;;;;;;3.42;3.13;;;;;;;20.01;60.59;97224.22;10167840;29;20089;-82
2022/06/05 01:40:18;;;;;;;3.40;3.20;;;;;;;20.01;60.54;97224.22;10174094;29;20071;-83
2022/06/05 01:46:10;;;;;;;3.57;3.27;;;;;;;19.99;60.57;97221.81;10167571;29;20131;-82
2022/06/05 01:51:52;;;;;;;3.20;3.00;;;;;;;19.99;60.50;97210.22;10170694;29;20079;-82
2022/06/05 01:57:12;;;;;;;3.25;3.05;;;;;;;19.99;60.47;97218.34;10180728;29;20568;-82
2022/06/05 02:02:36;;;;;;;3.40;3.10;;;;;;;19.99;60.53;97211.00;10165853;29;20566;-82
2022/06/05 02:08:03;;;;;;;3.45;3.17;;;;;;;19.98;60.53;97214.84;10181127;29;20044;-82
2022/06/05 02:13:23;;;;;;;3.28;3.00;;;;;;;19.99;60.42;97221.03;10170823;29;20053;-82
2022/06/05 02:18:42;;;;;;;3.15;2.95;;;;;;;19.99;60.39;97215.63;10165467;29;20052;-82
2022/06/05 02:24:02;;;;;;;3.90;3.00;;;;;;;19.97;60.42;97202.41;10195555;29;20075;-83
2022/06/05 02:29:24;;;;;;;3.38;3.08;;;;;;;19.97;60.44;97210.53;10193116;29;20059;-82
2022/06/05 02:35:18;;;;;;;3.22;3.03;;;;;;;19.97;60.42;97204.34;10178277;29;20052;-82
2022/06/05 02:40:51;;;;;;;3.47;3.17;;;;;;;19.96;60.36;97206.25;10189103;29;20052;-82
2022/06/05 02:46:29;;;;;;;3.20;3.00;;;;;;;19.95;60.43;97197.34;10192543;29;20059;-82
2022/06/05 02:51:48;;;;;;;3.00;2.80;;;;;;;19.96;60.42;97200.84;10182734;29;20072;-82
2022/06/05 02:57:08;;;;;;;3.22;3.03;;;;;;;19.95;60.31;97201.94;10186711;29;20170;-82
2022/06/05 03:08:08;;;;;;;2.95;2.75;;;;;;;19.94;60.37;97209.25;10176989;29;20055;-82
2022/06/05 03:13:27;;;;;;;3.25;2.95;;;;;;;19.93;60.28;97213.09;10192330;29;20056;-82
2022/06/05 03:18:47;;;;;;;3.35;3.05;;;;;;;19.94;60.30;97220.06;10160886;29;20624;-82
2022/06/05 03:24:07;;;;;;;3.28;3.08;;;;;;;19.93;60.15;97213.09;10162573;29;20055;-82
2022/06/05 03:29:26;;;;;;;3.05;2.85;;;;;;;19.94;60.38;97211.97;10190627;29;20052;-82
2022/06/05 03:34:46;;;;;;;3.10;2.90;;;;;;;19.93;60.15;97204.97;10193862;29;20044;-82
2022/06/05 03:40:11;;;;;;;3.10;2.90;;;;;;;19.93;60.07;97180.66;10179206;29;20595;-82
2022/06/05 03:45:30;;;;;;;3.25;3.00;;;;;;;19.93;60.22;97187.94;10178945;29;20059;-82
2022/06/05 03:50:50;;;;;;;3.00;2.80;;;;;;;19.92;60.35;97195.25;10188230;29;20056;-82
2022/06/05 03:56:28;;;;;;;3.40;3.13;;;;;;;19.92;60.27;97192.56;10175680;29;20689;-82
2022/06/05 04:01:48;;;;;;;2.92;2.72;;;;;;;19.97;60.13;97205.13;10161300;29;20048;-82
2022/06/05 04:07:08;;;;;;;2.90;2.70;;;;;;;19.97;60.22;97201.63;10174754;29;20050;-82
2022/06/05 04:12:27;;;;;;;3.40;3.00;;;;;;;19.97;59.92;97201.63;10174207;29;20078;-82
2022/06/05 04:17:47;;;;;;;2.92;2.72;;;;;;;19.96;60.13;97198.13;10149422;29;20075;-82
2022/06/05 04:23:08;;;;;;;3.28;2.97;;;;;;;19.98;60.02;97187.78;10177044;29;20044;-82
2022/06/05 04:28:28;;;;;;;3.42;3.13;;;;;;;20.00;60.19;97195.59;10174971;29;20059;-83
2022/06/05 04:33:48;;;;;;;3.30;3.10;;;;;;;20.02;59.87;97182.56;10175619;29;20049;-83
2022/06/05 04:39:08;;;;;;;3.08;2.88;;;;;;;20.01;59.53;97175.53;10172097;29;20067;-83
2022/06/05 04:44:28;;;;;;;3.47;3.17;;;;;;;20.03;59.65;97163.31;10159021;29;20432;-83
2022/06/05 04:49:47;;;;;;;3.20;3.00;;;;;;;20.04;59.38;97161.41;10182270;29;20048;-82
2022/06/05 04:55:07;;;;;;;3.15;2.95;;;;;;;20.04;59.44;97158.69;10181648;29;20048;-83
2022/06/05 05:00:27;;;;;;;3.10;2.90;;;;;;;20.03;59.44;97140.88;10161527;29;20059;-82
2022/06/05 05:05:46;;;;;;;3.08;2.88;;;;;;;20.03;59.32;97132.75;10175723;29;20056;-83
2022/06/05 05:11:06;;;;;;;3.22;3.03;;;;;;;20.03;59.31;97124.63;10163152;29;20060;-83
2022/06/05 05:16:27;;;;;;;3.30;3.10;;;;;;;20.02;59.34;97131.19;10178820;29;20056;-83
2022/06/05 05:21:46;;;;;;;3.00;2.80;;;;;;;20.02;59.38;97128.47;10168476;29;20056;-83
2022/06/05 05:27:06;;;;;;;3.20;2.97;;;;;;;20.00;59.20;97120.66;10176156;29;20064;-83
2022/06/05 05:32:25;;;;;;;3.00;2.80;;;;;;;19.99;59.25;97126.38;10192878;29;20110;-83
2022/06/05 05:37:50;;;;;;;3.03;2.83;;;;;;;19.99;59.25;97145.31;10178979;29;20075;-83
2022/06/05 05:43:09;;;;;;;3.13;2.92;;;;;;;19.99;59.19;97150.72;10179732;29;20068;-83
2022/06/05 05:48:28;;;;;;;3.00;2.80;;;;;;;19.99;59.25;97161.53;10193064;29;20059;-83
2022/06/05 05:53:48;;;;;;;3.35;3.05;;;;;;;19.97;59.17;97155.66;10192629;29;20496;-82
2022/06/05 05:59:07;;;;;;;3.08;2.80;;;;;;;19.98;58.97;97149.16;10197887;29;20067;-83
2022/06/05 06:04:27;;;;;;;3.05;2.85;;;;;;;19.96;59.29;97149.47;10189833;29;20059;-82
2022/06/05 06:09:47;;;;;;;3.10;2.90;;;;;;;19.97;59.51;97153.75;10200349;29;20052;-82
2022/06/05 06:15:07;;;;;;;7.00;6.40;;;;;;;19.95;61.22;97145.97;10172370;29;20067;-82
2022/06/05 06:20:27;;;;;;;8.00;7.13;;;;;;;19.93;61.70;97145.50;10187818;29;20048;-85
2022/06/05 06:25:46;;;;;;;7.10;6.40;;;;;;;19.94;61.67;97147.06;10179897;29;20071;-84
2022/06/05 06:31:09;;;;;;;6.97;6.32;;;;;;;19.96;61.40;97144.06;10181496;29;20096;-84
2022/06/05 06:36:28;;;;;;;6.78;6.18;;;;;;;19.94;61.21;97132.75;10169702;29;20447;-84
2022/06/05 06:41:48;;;;;;;6.88;6.20;;;;;;;19.94;61.48;97116.53;10159183;29;20063;-84
2022/06/05 06:47:08;;;;;;;6.55;5.95;;;;;;;19.94;61.31;97117.31;10165806;29;20067;-84
2022/06/05 06:52:27;;;;;;;6.30;5.80;;;;;;;19.93;60.82;97115.75;10169638;29;20499;-84
2022/06/05 06:57:49;;;;;;;6.10;5.45;;;;;;;19.94;60.87;97130.06;10156055;29;20052;-84
2022/06/05 07:03:09;;;;;;;5.65;4.95;;;;;;;19.94;60.65;97111.13;10165249;29;20059;-83
2022/06/05 07:08:29;;;;;;;6.15;5.65;;;;;;;19.94;60.43;97094.91;10186371;29;20060;-83
2022/06/05 07:13:50;;;;;;;6.35;5.85;;;;;;;19.94;60.68;97084.09;10150863;29;20056;-83
2022/06/05 07:19:10;;;;;;;6.55;5.95;;;;;;;19.95;60.38;97075.66;10154199;29;20052;-84
2022/06/05 07:24:29;;;;;;;8.90;5.18;;;;;;;19.96;60.07;97071.03;10149182;29;20064;-83
2022/06/05 07:29:49;;;;;;;5.43;4.93;;;;;;;19.98;59.83;97070.72;10153607;29;20068;-83
2022/06/05 07:35:12;;;;;;;5.45;4.95;;;;;;;19.97;59.76;97078.03;10142625;29;20051;-82
2022/06/05 07:40:31;;;;;;;5.72;5.22;;;;;;;19.98;59.49;97076.13;10185387;29;20082;-83
2022/06/05 07:45:50;;;;;;;6.18;4.75;;;;;;;19.98;59.47;97070.72;10179224;29;20064;-82
2022/06/05 07:56:56;;;;;;;9.30;5.97;;;;;;;19.97;59.63;97088.06;10198795;29;20048;-82
2022/06/05 08:02:24;;;;;;;9.80;5.90;;;;;;;19.96;59.63;97089.97;10177847;29;20051;-82
2022/06/05 08:07:44;;;;;;;16.00;7.47;;;;;;;19.95;59.60;97077.56;10191654;29;20425;-82
2022/06/05 08:13:05;;;;;;;18.52;8.00;;;;;;;19.95;59.48;97083.78;10196129;29;20059;-82
2022/06/05 08:18:24;;;;;;;18.98;8.95;;;;;;;19.95;59.49;97085.66;10170789;29;20066;-82
2022/06/05 08:23:44;;;;;;;21.02;9.00;;;;;;;19.95;59.61;97074.84;10196963;29;20112;-82
2022/06/05 08:29:04;;;;;;;16.15;8.75;;;;;;;19.94;59.45;97071.34;10189352;29;20048;-82
2022/06/05 08:34:24;;;;;;;19.17;9.05;;;;;;;19.93;59.65;97069.78;10204740;29;20450;-82
2022/06/05 08:45:24;;;;;;;18.38;8.65;;;;;;;19.94;59.56;97071.34;10195235;29;20071;-82
2022/06/05 08:50:49;;;;;;;15.45;8.38;;;;;;;19.93;59.49;97061.66;10198965;29;20068;-82
2022/06/05 08:56:13;;;;;;;16.90;8.48;;;;;;;19.94;59.59;97054.34;10162824;29;20048;-82
2022/06/05 09:01:45;;;;;;;15.88;7.55;;;;;;;19.94;59.61;97052.44;10171589;29;20060;-82
2022/06/05 09:07:10;;;;;;;12.82;7.35;;;;;;;19.94;59.51;97051.66;10185241;29;20087;-82
2022/06/05 09:12:37;;;;;;;12.93;7.45;;;;;;;19.94;59.92;97057.06;10187228;29;20060;-83
2022/06/05 09:18:01;;;;;;;12.88;7.57;;;;;;;19.94;59.61;97052.44;10176045;29;20056;-82
2022/06/05 09:23:25;;;;;;;12.65;7.40;;;;;;;19.94;59.58;97047.03;10186933;29;20051;-82
2022/06/05 09:28:54;;;;;;;10.23;7.13;;;;;;;19.94;59.69;97041.63;10187193;29;20052;-82
2022/06/05 09:34:18;;;;;;;12.73;7.05;;;;;;;19.93;59.61;97029.22;10193966;29;20075;-82
2022/06/05 09:39:38;;;;;;;12.15;7.47;;;;;;;19.94;59.55;97028.09;10188687;29;20552;-82
2022/06/05 09:45:06;;;;;;;10.80;7.13;;;;;;;19.94;59.62;97036.22;10187195;29;20087;-82
2022/06/05 09:50:28;;;;;;;10.73;6.90;;;;;;;19.93;59.55;97040.03;10187680;29;20130;-82
2022/06/05 09:56:10;;;;;;;11.23;7.18;;;;;;;19.94;59.64;97025.38;10185521;29;20125;-82
2022/06/05 10:01:34;;;;;;;10.30;6.50;;;;;;;19.94;59.63;97017.28;10199599;29;20063;-82
2022/06/05 10:06:58;;;;;;;11.52;7.18;;;;;;;19.94;59.59;97005.69;10184965;29;20455;-82
2022/06/05 10:12:38;;;;;;;11.10;6.65;;;;;;;19.93;59.80;96985.97;10201507;29;20079;-82
2022/06/05 10:18:01;;;;;;;10.73;7.63;;;;;;;19.94;59.56;96981.34;10179199;29;20124;-82
2022/06/05 10:23:35;;;;;;;10.80;6.80;;;;;;;19.93;59.63;96974.34;10190546;29;20052;-82
2022/06/05 10:29:18;;;;;;;8.80;6.43;;;;;;;19.93;59.61;96991.38;10192205;29;20467;-82
2022/06/05 10:34:46;;;;;;;10.00;6.15;;;;;;;19.93;59.43;96988.66;10204394;29;20044;-82
2022/06/05 10:40:17;;;;;;;9.95;6.22;;;;;;;19.93;59.59;96968.94;10182833;29;20450;-82
2022/06/05 10:45:59;;;;;;;8.30;6.32;;;;;;;19.94;59.63;96968.59;10199560;29;20052;-82
2022/06/05 10:51:44;;;;;;;9.70;6.22;;;;;;;19.93;59.63;96977.84;10174400;29;20056;-82
2022/06/05 10:57:16;;;;;;;10.60;6.47;;;;;;;19.94;59.61;96971.31;10183000;29;20091;-82
2022/06/05 11:02:56;;;;;;;8.00;5.88;;;;;;;19.92;59.51;96968.13;10208119;29;20048;-82
2022/06/05 11:08:39;;;;;;;9.02;6.60;;;;;;;19.94;59.56;96973.22;10174547;29;20060;-82
2022/06/05 11:14:14;;;;;;;7.82;6.03;;;;;;;19.94;59.54;96960.50;10197682;29;20058;-82
2022/06/05 11:19:41;;;;;;;7.88;5.72;;;;;;;19.93;59.34;96950.81;10186643;29;20050;-82
2022/06/05 11:25:36;;;;;;;8.73;5.78;;;;;;;19.93;59.58;96955.41;10199373;29;20056;-82
2022/06/05 11:31:05;;;;;;;6.57;5.40;;;;;;;19.93;59.56;96950.81;10165169;29;20514;-82
2022/06/05 11:36:37;;;;;;;;;;;;;;;19.94;59.58;96943.50;10192202;29;20048;-82
2022/06/05 11:42:19;;;;;;;8.77;5.82;;;;;;;19.93;59.61;96948.09;10202648;29;19965;-82
2022/06/05 11:47:56;;;;;;;8.35;5.82;;;;;;;19.93;59.63;96937.28;10202162;29;20058;-82
2022/06/05 11:53:54;;;;;;;6.90;5.32;;;;;;;19.93;59.53;96931.88;10166781;29;20054;-82
2022/06/05 11:59:33;;;;;;;8.35;5.70;;;;;;;19.94;59.57;96911.03;10200482;29;20052;-82
2022/06/05 12:05:17;;;;;;;7.30;5.35;;;;;;;19.94;59.37;96902.94;10177182;29;20066;-82
2022/06/05 12:10:48;;;;;;;7.20;5.03;;;;;;;19.92;59.54;96895.13;10187573;29;20056;-82
2022/06/05 12:16:27;;;;;;;6.88;5.25;;;;;;;19.93;59.58;96885.91;10180844;29;20060;-82
2022/06/05 12:22:05;;;;;;;7.63;5.43;;;;;;;19.93;59.50;96875.09;10195986;29;20044;-82
2022/06/05 12:27:41;;;;;;;7.45;5.50;;;;;;;19.93;59.46;96872.41;10186220;29;20060;-82
2022/06/05 12:33:16;;;;;;;6.53;5.45;;;;;;;19.93;59.47;96864.28;10192942;29;20063;-82
2022/06/05 12:38:42;;;;;;;7.55;5.47;;;;;;;19.94;59.51;96846.16;10188289;29;20056;-82
2022/06/05 12:44:20;;;;;;;6.38;5.28;;;;;;;19.94;59.45;96840.75;10186121;29;20063;-82
2022/06/05 12:49:55;;;;;;;7.97;5.38;;;;;;;19.94;59.41;96827.22;10186033;29;20089;-82
2022/06/05 12:55:32;;;;;;;7.65;5.38;;;;;;;19.95;59.45;96815.28;10201420;29;20048;-82
2022/06/05 13:01:02;;;;;;;6.22;5.22;;;;;;;19.93;59.28;96807.50;10200728;29;20052;-82
2022/06/05 13:07:16;;;;;;;6.88;4.90;;;;;;;19.93;59.44;96791.28;10199246;29;20056;-82
2022/06/05 13:12:40;;;;;;;6.72;5.00;;;;;;;19.94;59.51;96786.66;10159385;29;20131;-82
2022/06/05 13:18:22;;;;;;;7.60;5.20;;;;;;;19.93;59.40;96791.28;10186327;29;20060;-82
2022/06/05 13:23:46;;;;;;;6.22;4.75;;;;;;;19.93;59.43;96785.88;10198179;29;20056;-82
2022/06/05 13:29:10;;;;;;;6.40;5.13;;;;;;;19.95;59.43;96774.72;10184755;29;20059;-82
2022/06/05 13:34:37;;;;;;;5.90;5.22;;;;;;;19.93;59.47;96766.94;10199993;29;20052;-82
2022/06/05 13:40:06;;;;;;;6.05;4.72;;;;;;;19.94;59.37;96755.00;10184079;29;20504;-82
2022/06/05 13:45:47;;;;;;;6.10;4.60;;;;;;;19.94;59.38;96738.00;10173528;29;20084;-82
2022/06/05 13:51:28;;;;;;;4.93;4.43;;;;;;;19.93;59.33;96745.31;10189479;29;20058;-82
2022/06/05 13:56:57;;;;;;;6.10;4.53;;;;;;;19.94;59.33;96727.97;10207063;29;20044;-82
2022/06/05 14:02:30;;;;;;;6.22;4.65;;;;;;;19.93;59.35;96726.41;10190882;29;20107;-82
2022/06/05 14:07:49;;;;;;;5.65;4.72;;;;;;;19.94;59.37;96727.19;10192345;29;20135;-82
2022/06/05 14:13:14;;;;;;;8.57;4.60;;;;;;;19.94;59.44;96710.97;10203144;29;20051;-82
2022/06/05 14:18:46;;;;;;;4.63;4.13;;;;;;;19.94;59.33;96711.75;10178215;29;20052;-82
2022/06/05 14:24:17;;;;;;;5.25;4.43;;;;;;;19.94;59.38;96717.16;10180870;29;20060;-82
2022/06/05 14:29:40;;;;;;;6.45;4.65;;;;;;;19.93;59.34;96707.47;10189462;29;20044;-82
2022/06/05 14:35:21;;;;;;;4.93;4.47;;;;;;;19.93;59.35;96698.53;10190088;29;20515;-82
2022/06/05 14:40:49;;;;;;;5.20;4.60;;;;;;;19.94;59.41;96700.16;10204976;29;20135;-82
2022/06/05 14:46:23;;;;;;;4.73;4.27;;;;;;;19.95;59.30;96696.31;10190844;29;20066;-82
2022/06/05 14:52:17;;;;;;;5.05;4.50;;;;;;;19.94;59.43;96703.63;10189717;29;20052;-82
2022/06/05 14:57:51;;;;;;;5.28;4.35;;;;;;;19.94;59.16;96705.56;10202887;29;20052;-82
2022/06/05 15:03:22;;;;;;;4.35;3.92;;;;;;;19.95;59.29;96696.31;10189313;29;20056;-82
2022/06/05 15:08:58;;;;;;;4.88;4.25;;;;;;;19.94;59.32;96684.72;10204139;29;20055;-82
2022/06/05 15:14:43;;;;;;;5.05;4.20;;;;;;;19.94;59.28;96687.41;10200366;29;20599;-82
2022/06/05 15:20:04;;;;;;;4.20;3.80;;;;;;;19.95;59.33;96683.59;10187091;29;20519;-82
2022/06/05 15:25:45;;;;;;;4.90;4.07;;;;;;;19.94;59.29;96675.81;10202054;29;20080;-82
2022/06/05 15:31:07;;;;;;;4.35;3.95;;;;;;;19.94;59.24;96668.47;10174616;29;20068;-83
2022/06/05 15:36:50;;;;;;;5.63;4.13;;;;;;;19.94;59.33;96656.88;10188526;29;20048;-82
2022/06/05 15:42:29;;;;;;;4.82;4.10;;;;;;;19.94;59.32;96667.69;10187141;29;20067;-83
2022/06/05 15:48:08;;;;;;;5.15;4.00;;;;;;;19.94;59.30;96652.25;10187938;29;20564;-82
2022/06/05 15:54:02;;;;;;;5.07;4.25;;;;;;;19.93;59.26;96645.28;10200041;29;20103;-82
2022/06/05 15:59:43;;;;;;;4.00;3.65;;;;;;;19.94;59.31;96646.84;10182545;29;20056;-82
2022/06/05 16:05:06;;;;;;;4.28;3.88;;;;;;;19.94;59.32;96637.97;10187796;29;20052;-82
2022/06/05 16:10:34;;;;;;;4.95;4.20;;;;;;;19.94;59.24;96646.06;10161337;29;20064;-82
2022/06/05 16:15:58;;;;;;;4.30;3.90;;;;;;;19.93;59.27;96631.78;10191229;29;20052;-82
2022/06/05 16:21:33;;;;;;;4.15;3.75;;;;;;;19.93;59.19;96631.78;10188374;29;20072;-82
2022/06/05 16:26:56;;;;;;;4.95;4.00;;;;;;;19.93;59.24;96637.19;10201382;29;20060;-82
2022/06/05 16:32:37;;;;;;;4.50;4.10;;;;;;;19.94;59.20;96643.38;10189805;29;20487;-82
2022/06/05 16:37:57;;;;;;;4.22;3.83;;;;;;;19.93;59.27;96639.88;10204209;29;20056;-82
2022/06/05 16:43:19;;;;;;;4.43;3.90;;;;;;;19.93;59.41;96629.06;10201416;29;20052;-82
2022/06/05 16:48:56;;;;;;;4.53;3.85;;;;;;;19.92;59.27;96619.34;10187794;29;20044;-82
2022/06/05 16:54:21;;;;;;;4.18;3.78;;;;;;;19.92;59.16;96627.47;10176486;29;20067;-82
2022/06/05 17:00:00;;;;;;;4.75;3.40;;;;;;;19.93;59.26;96617.44;10184689;29;20048;-82
2022/06/05 17:05:39;;;;;;;3.85;3.55;;;;;;;19.92;59.22;96616.66;10192630;29;20074;-83
2022/06/05 17:11:22;;;;;;;3.78;3.47;;;;;;;19.95;59.38;96616.00;10171012;29;20051;-81
2022/06/05 17:17:05;;;;;;;4.32;3.63;;;;;;;19.98;59.46;96605.66;10156117;29;20045;-83
2022/06/05 17:22:31;;;;;;;4.20;3.40;;;;;;;19.98;59.43;96609.13;10167972;29;20052;-83
2022/06/05 17:28:28;;;;;;;3.90;3.53;;;;;;;-146.19;100.00;65364.44;10184002;29;20091;-85
2022/06/05 17:34:06;;;;;;;3.77;3.37;;;;;;;-146.19;100.00;65364.44;10142565;29;20067;-83
2022/06/05 17:39:41;;;;;;;5.10;3.53;;;;;;;19.99;59.77;96601.81;10181084;29;20515;-84
2022/06/05 17:45:22;;;;;;;4.10;3.70;;;;;;;19.99;59.90;96591.00;10169012;29;20056;-83
2022/06/05 17:51:07;;;;;;;4.10;3.38;;;;;;;19.97;59.70;96579.72;10169302;29;20056;-82
2022/06/05 17:56:37;;;;;;;5.65;3.75;;;;;;;19.97;59.60;96582.41;10162541;29;20056;-82
2022/06/05 18:01:57;;;;;;;6.30;3.42;;;;;;;19.98;59.69;96575.91;10181462;29;20084;-83
2022/06/05 18:07:36;;;;;;;4.00;3.58;;;;;;;19.99;59.38;96591.00;10149985;29;20061;-82
2022/06/05 18:12:57;;;;;;;4.85;3.55;;;;;;;19.98;59.09;96594.84;10165491;29;20075;-81
2022/06/05 18:18:19;;;;;;;3.80;3.50;;;;;;;19.96;58.88;96608.69;10183230;29;20051;-81
2022/06/05 18:23:51;;;;;;;4.25;3.28;;;;;;;19.95;58.37;96617.91;10167388;29;20464;-81
2022/06/05 18:29:23;;;;;;;3.47;3.17;;;;;;;19.93;58.16;96633.66;10161259;29;20423;-81
2022/06/05 18:34:56;;;;;;;3.75;3.42;;;;;;;19.93;57.98;96645.28;10176739;29;20051;-81
2022/06/05 18:40:27;;;;;;;3.90;3.60;;;;;;;19.92;57.77;96654.50;10176853;29;20052;-82
2022/06/05 18:45:48;;;;;;;3.55;3.25;;;;;;;19.93;57.67;96645.28;10166375;29;20052;-81
2022/06/05 18:51:21;;;;;;;4.97;3.63;;;;;;;19.92;57.72;96638.28;10159308;29;20052;-81
2022/06/05 18:56:41;;;;;;;3.65;3.15;;;;;;;19.92;57.62;96654.50;10175581;29;20567;-81
2022/06/05 19:02:11;;;;;;;3.80;3.50;;;;;;;19.93;57.59;96660.69;10154332;29;20067;-81
2022/06/05 19:07:42;;;;;;;4.22;3.38;;;;;;;19.92;57.60;96673.44;10166908;29;20190;-81
2022/06/05 19:13:32;;;;;;;3.28;3.08;;;;;;;19.92;57.61;96678.06;10166196;29;20056;-81
2022/06/05 19:18:59;;;;;;;4.30;3.55;;;;;;;19.93;57.58;96669.63;10162987;29;20059;-81
2022/06/05 19:24:32;;;;;;;3.88;3.45;;;;;;;19.94;57.40;96679.28;10180923;29;20075;-81
2022/06/05 19:29:55;;;;;;;3.92;3.50;;;;;;;19.93;57.70;96676.91;10160348;29;20052;-83
2022/06/05 19:35:26;;;;;;;4.05;3.70;;;;;;;19.93;57.52;96687.72;10185286;29;20103;-82
2022/06/05 19:41:09;;;;;;;4.03;3.70;;;;;;;19.90;57.32;96693.81;10175337;29;20063;-81
2022/06/05 19:46:34;;;;;;;4.03;3.72;;;;;;;19.91;57.33;96706.97;10178029;29;20052;-81
2022/06/05 19:52:04;;;;;;;3.92;3.63;;;;;;;19.90;57.41;96705.41;10195421;29;21013;-82
2022/06/05 19:57:34;;;;;;;4.20;3.90;;;;;;;19.91;57.28;96709.69;10180229;29;20048;-81
2022/06/05 20:02:58;;;;;;;5.93;4.55;;;;;;;19.89;57.17;96717.34;10162957;29;20044;-82
2022/06/05 20:08:23;;;;;;;5.72;5.22;;;;;;;19.90;57.24;96712.75;10176882;29;20055;-81
2022/06/05 20:14:10;;;;;;;5.60;5.10;;;;;;;19.89;57.21;96708.44;10160415;29;20047;-81
2022/06/05 20:19:52;;;;;;;5.60;5.10;;;;;;;19.89;57.12;96711.94;10172139;29;20052;-82
2022/06/05 20:25:26;;;;;;;5.07;4.65;;;;;;;19.89;57.21;96708.44;10156479;29;20457;-81
2022/06/05 20:30:50;;;;;;;5.20;4.75;;;;;;;19.89;57.12;96703.81;10148755;29;20062;-82
2022/06/05 20:36:14;;;;;;;5.30;4.80;;;;;;;19.89;57.12;96705.72;10153808;29;20052;-82
2022/06/05 20:41:37;;;;;;;7.82;4.65;;;;;;;19.89;57.05;96684.88;10156937;29;20067;-82
2022/06/05 20:47:09;;;;;;;5.07;4.68;;;;;;;19.89;56.89;96674.06;10167374;29;20064;-82
2022/06/05 20:52:35;;;;;;;5.72;4.82;;;;;;;19.90;56.95;96661.38;10173986;29;20492;-82
2022/06/05 20:58:15;;;;;;;5.13;4.63;;;;;;;19.88;57.01;96645.47;10160086;29;20056;-82
2022/06/05 21:09:22;;;;;;;4.85;4.45;;;;;;;19.88;57.25;96621.13;10147759;29;20052;-82
2022/06/05 21:20:24;;;;;;;4.88;4.40;;;;;;;19.90;57.45;96618.13;10181107;29;20059;-82
2022/06/05 21:25:46;;;;;;;5.43;4.95;;;;;;;19.89;57.56;96614.59;10177186;29;20052;-82
2022/06/05 21:31:18;;;;;;;4.95;4.55;;;;;;;19.89;57.64;96622.72;10175686;29;20052;-82
2022/06/05 21:36:38;;;;;;;4.90;4.50;;;;;;;19.89;57.63;96611.91;10189243;29;20048;-82
2022/06/05 21:42:04;;;;;;;4.53;4.22;;;;;;;19.88;57.61;96610.31;10188571;29;20056;-82
2022/06/05 21:47:24;;;;;;;4.72;4.32;;;;;;;19.88;57.67;96620.34;10173894;29;20052;-82
2022/06/05 21:52:46;;;;;;;4.70;4.30;;;;;;;19.88;57.85;96623.84;10164363;29;20138;-82
2022/06/05 21:58:12;;;;;;;4.88;4.47;;;;;;;19.88;57.74;96623.06;10173984;29;20518;-82
2022/06/05 22:03:32;;;;;;;4.90;4.50;;;;;;;19.87;57.84;96624.94;10187358;29;20385;-82
2022/06/05 22:08:53;;;;;;;4.60;4.20;;;;;;;19.86;57.86;96628.78;10176912;29;20052;-82
2022/06/05 22:14:16;;;;;;;4.85;4.35;;;;;;;19.87;57.95;96632.28;10176317;29;20056;-82
2022/06/05 22:19:35;;;;;;;5.05;4.22;;;;;;;19.86;57.88;96661.22;10178762;29;20468;-82
2022/06/05 22:24:55;;;;;;;4.50;4.10;;;;;;;19.87;57.99;96680.94;10178222;29;20052;-81
2022/06/05 22:30:14;;;;;;;4.05;3.75;;;;;;;19.87;58.18;96662.03;10180568;29;20056;-82
2022/06/05 22:35:35;;;;;;;5.00;4.38;;;;;;;19.86;58.11;96669.34;10192080;29;20052;-82
2022/06/05 22:40:55;;;;;;;4.40;4.00;;;;;;;19.86;58.22;96663.94;10177729;29;20052;-82
2022/06/05 22:46:15;;;;;;;4.07;3.78;;;;;;;19.86;58.28;96655.81;10180391;29;20103;-82
2022/06/05 22:51:35;;;;;;;4.43;4.07;;;;;;;19.86;58.32;96672.03;10193328;29;20052;-82
2022/06/05 22:56:55;;;;;;;4.13;3.83;;;;;;;19.85;58.27;96662.34;10180219;29;20048;-82
2022/06/05 23:02:14;;;;;;;18.17;4.70;;;;;;;19.85;58.27;96654.22;10185923;29;20053;-81
2022/06/05 23:07:34;;;;;;;4.35;4.05;;;;;;;19.85;58.34;96658.84;10178228;29;20048;-82
2022/06/05 23:12:53;;;;;;;7.32;4.32;;;;;;;19.85;58.27;96662.34;10177998;29;20052;-82
2022/06/05 23:18:12;;;;;;;4.40;4.00;;;;;;;19.85;58.28;96656.16;10180472;29;20798;-82
2022/06/05 23:23:31;;;;;;;11.48;4.85;;;;;;;19.84;58.46;96657.28;10178294;29;20111;-82
2022/06/05 23:28:51;;;;;;;4.03;3.72;;;;;;;19.84;58.36;96655.38;10185633;29;20060;-82
2022/06/05 23:34:12;;;;;;;4.30;4.00;;;;;;;19.84;58.36;96658.06;10176322;29;20062;-82
2022/06/05 23:39:31;;;;;;;4.15;3.85;;;;;;;19.85;58.49;96658.84;10194003;29;20056;-82
2022/06/05 23:44:51;;;;;;;4.30;4.00;;;;;;;19.84;58.38;96628.34;10186691;29;20055;-82
2022/06/05 23:50:11;;;;;;;4.07;3.78;;;;;;;19.85;58.41;96634.53;10170659;29;20051;-82
2022/06/05 23:55:30;;;;;;;4.32;4.03;;;;;;;19.84;58.45;96641.84;10175659;29;20301;-82
